Time;durP1;ratioP1;P1;durP2;ratioP2;P2;SDS_P1;SDS_P2;PMS_P1;PMS_P2;Temp;Humidity;BMP_temperature;BMP_pressure;BME280_temperature;BME280_humidity;BME280_pressure;Samples;Min_cycle;Max_cycle;Signal;HPM_P1;HPM_P2
2021/08/30 00:01:57;;;;;;;3.45;3.15;;;;;;;16.61;86.92;100050.75;10345359;28;20042;-61
2021/08/30 00:07:00;;;;;;;3.95;3.65;;;;;;;16.61;87.14;100045.38;10343738;28;20050;-61
2021/08/30 00:12:01;;;;;;;4.28;3.03;;;;;;;16.69;87.11;100041.00;10345156;28;20058;-60
2021/08/30 00:17:03;;;;;;;3.65;3.35;;;;;;;16.71;87.12;100045.22;10343789;28;20068;-61
2021/08/30 00:22:05;;;;;;;5.60;3.85;;;;;;;16.74;87.43;100038.69;10344647;28;20065;-60
2021/08/30 00:27:06;;;;;;;4.45;4.05;;;;;;;16.81;87.01;100038.81;10343900;28;20073;-61
2021/08/30 00:32:08;;;;;;;4.32;3.75;;;;;;;16.75;85.94;100051.09;10343708;28;20057;-61
2021/08/30 00:37:09;;;;;;;5.05;4.55;;;;;;;16.57;85.51;100043.19;10344216;28;20125;-61
2021/08/30 00:42:11;;;;;;;5.05;4.07;;;;;;;16.61;86.55;100045.38;10344603;28;20592;-60
2021/08/30 00:47:14;;;;;;;5.90;4.28;;;;;;;16.65;85.99;100036.97;10343615;28;20058;-61
2021/08/30 00:52:15;;;;;;;4.97;4.47;;;;;;;16.60;85.83;100037.47;10340977;28;20046;-61
2021/08/30 00:57:16;;;;;;;4.25;3.85;;;;;;;16.64;86.00;100029.94;10339876;28;20132;-65
2021/08/30 01:02:18;;;;;;;5.15;4.65;;;;;;;16.53;85.50;100049.91;10343128;28;20045;-61
2021/08/30 01:07:24;;;;;;;5.85;4.68;;;;;;;16.52;85.98;100046.38;10339439;28;20120;-61
2021/08/30 01:12:42;;;;;;;5.65;4.68;;;;;;;16.52;85.36;100026.75;10341750;28;20081;-61
2021/08/30 01:17:46;;;;;;;5.30;4.80;;;;;;;16.58;85.14;100040.34;10341124;28;20074;-61
2021/08/30 01:22:48;;;;;;;6.00;5.25;;;;;;;16.63;84.59;100045.22;10341576;28;20137;-60
2021/08/30 01:27:52;;;;;;;5.75;5.15;;;;;;;16.58;84.45;100039.50;10340617;28;20053;-61
2021/08/30 01:33:00;;;;;;;6.43;5.80;;;;;;;16.60;84.56;100042.84;10338349;28;20134;-61
2021/08/30 01:38:06;;;;;;;5.60;5.13;;;;;;;16.59;84.69;100041.19;10352232;28;20068;-61
2021/08/30 01:43:10;;;;;;;6.50;5.90;;;;;;;16.73;84.44;100047.75;10341146;28;20430;-60
2021/08/30 01:48:12;;;;;;;6.05;5.43;;;;;;;16.76;84.30;100039.34;10356900;28;21114;-61
2021/08/30 01:53:15;;;;;;;6.28;5.65;;;;;;;16.67;83.88;100045.72;10340293;28;20050;-61
2021/08/30 02:03:26;;;;;;;7.20;5.03;;;;;;;16.63;83.82;100029.09;10336040;28;20133;-60
2021/08/30 02:08:31;;;;;;;6.57;5.72;;;;;;;16.56;84.17;100037.00;10339530;28;20057;-61
2021/08/30 02:13:33;;;;;;;6.53;5.93;;;;;;;16.57;83.92;100033.31;10340338;28;20066;-61
2021/08/30 02:18:43;;;;;;;6.78;5.88;;;;;;;16.43;84.24;100031.28;10337896;28;20131;-60
2021/08/30 02:24:09;;;;;;;7.30;6.57;;;;;;;16.44;84.77;100041.03;10336563;28;20074;-60
2021/08/30 02:29:16;;;;;;;6.55;5.88;;;;;;;16.53;84.39;100031.94;10333982;28;20137;-60
2021/08/30 02:34:20;;;;;;;7.90;6.88;;;;;;;16.66;83.69;100052.09;10334005;28;20054;-61
2021/08/30 02:39:22;;;;;;;7.95;7.20;;;;;;;16.61;83.27;100044.53;10344131;28;20136;-60
2021/08/30 02:44:23;;;;;;;7.90;7.07;;;;;;;16.60;83.49;100041.03;10347520;28;20049;-65
2021/08/30 02:49:25;;;;;;;7.30;6.60;;;;;;;16.57;83.50;100032.44;10347288;28;20138;-61
2021/08/30 02:54:27;;;;;;;8.55;7.18;;;;;;;16.75;83.61;100045.72;10347306;28;20077;-61
2021/08/30 02:59:28;;;;;;;6.78;5.93;;;;;;;16.65;82.81;100035.16;10347790;28;20136;-60
2021/08/30 03:04:31;;;;;;;6.68;6.07;;;;;;;16.73;82.58;100039.69;10345636;28;20439;-60
2021/08/30 03:09:32;;;;;;;6.00;5.43;;;;;;;16.73;82.55;100037.00;10344672;28;20137;-61
2021/08/30 03:14:38;;;;;;;7.97;6.68;;;;;;;16.64;83.18;100038.00;10358623;28;20517;-59
2021/08/30 03:19:44;;;;;;;7.32;6.63;;;;;;;16.61;83.04;100039.16;10343769;28;20107;-61
2021/08/30 03:24:46;;;;;;;6.85;6.15;;;;;;;16.64;83.24;100038.00;10343182;28;20108;-66
2021/08/30 03:29:49;;;;;;;7.55;6.50;;;;;;;16.70;82.91;100042.69;10342622;28;20141;-60
2021/08/30 03:34:52;;;;;;;6.95;5.50;;;;;;;16.70;82.76;100048.06;10341876;28;20132;-61
2021/08/30 03:39:55;;;;;;;7.40;6.35;;;;;;;16.75;82.61;100051.94;10343380;28;20136;-61
2021/08/30 03:44:57;;;;;;;6.45;5.80;;;;;;;16.75;82.41;100046.56;10343084;28;20137;-62
2021/08/30 03:50:04;;;;;;;6.50;5.82;;;;;;;16.86;81.95;100049.91;10343763;28;20121;-60
2021/08/30 03:55:10;;;;;;;6.47;5.88;;;;;;;16.85;81.78;100054.44;10343293;28;20093;-61
2021/08/30 04:00:12;;;;;;;7.20;6.50;;;;;;;16.77;82.59;100065.22;10341422;28;20488;-61
2021/08/30 04:05:18;;;;;;;6.70;6.10;;;;;;;16.83;84.17;100063.69;10329659;28;20054;-61
2021/08/30 04:10:19;;;;;;;7.35;6.65;;;;;;;16.74;85.13;100060.19;10337028;28;20062;-61
2021/08/30 04:15:22;;;;;;;7.25;6.47;;;;;;;16.61;86.02;100056.13;10340497;28;20057;-60
2021/08/30 04:20:23;;;;;;;7.00;6.30;;;;;;;16.62;87.06;100056.97;10341982;28;20070;-61
2021/08/30 04:25:25;;;;;;;7.63;6.82;;;;;;;16.66;87.72;100057.47;10341166;28;20084;-61
2021/08/30 04:30:26;;;;;;;8.35;7.25;;;;;;;16.65;87.95;100059.34;10342291;28;20127;-68
2021/08/30 04:35:28;;;;;;;7.18;6.57;;;;;;;16.81;86.48;100061.16;10339107;28;20626;-60
2021/08/30 04:40:29;;;;;;;9.23;6.72;;;;;;;16.75;87.81;100069.91;10387693;22;20056;-55
2021/08/30 04:45:31;;;;;;;7.80;6.43;;;;;;;16.82;86.20;100072.78;10385739;28;20099;-56
2021/08/30 04:50:32;;;;;;;7.00;6.30;;;;;;;16.73;85.70;100070.06;10385554;28;20057;-54
2021/08/30 04:55:36;;;;;;;7.30;6.57;;;;;;;16.75;85.56;100072.59;10386035;28;20048;-56
2021/08/30 05:00:38;;;;;;;7.60;6.57;;;;;;;16.85;85.16;100081.31;10384972;28;20662;-54
2021/08/30 05:05:40;;;;;;;6.70;6.10;;;;;;;16.75;84.46;100061.84;10385193;28;20288;-57
2021/08/30 05:10:41;;;;;;;7.38;6.50;;;;;;;16.75;83.93;100080.66;10370678;28;20073;-54
2021/08/30 05:15:42;;;;;;;7.70;6.43;;;;;;;16.72;84.07;100089.03;10360643;28;20136;-55
2021/08/30 05:20:49;;;;;;;6.40;5.85;;;;;;;16.71;83.92;100092.72;10361815;28;20210;-54
2021/08/30 05:25:50;;;;;;;6.90;6.22;;;;;;;16.79;83.71;100095.44;10360875;28;20041;-55
2021/08/30 05:30:52;;;;;;;7.78;6.97;;;;;;;16.68;83.76;100098.44;10362841;28;20054;-54
2021/08/30 05:35:54;;;;;;;7.13;6.47;;;;;;;16.71;83.99;100104.34;10359596;28;20500;-54
2021/08/30 05:40:55;;;;;;;8.02;7.22;;;;;;;16.66;83.73;100106.69;10362034;28;20049;-55
2021/08/30 05:45:56;;;;;;;7.97;7.20;;;;;;;16.73;83.69;100102.31;10360670;28;20140;-55
2021/08/30 05:50:58;;;;;;;8.05;7.25;;;;;;;16.84;83.58;100106.50;10333753;28;20149;-58
2021/08/30 05:55:59;;;;;;;7.65;6.68;;;;;;;16.95;83.85;100113.47;10362250;28;20144;-54
2021/08/30 06:01:05;;;;;;;8.85;7.30;;;;;;;16.96;82.80;100110.59;10363275;28;20168;-55
2021/08/30 06:06:07;;;;;;;7.78;6.97;;;;;;;17.02;82.59;100114.44;10363052;28;20045;-56
2021/08/30 06:11:09;;;;;;;7.70;6.90;;;;;;;17.03;82.17;100101.84;10360502;28;20165;-53
2021/08/30 06:16:10;;;;;;;9.07;8.18;;;;;;;17.08;81.46;100096.78;10371285;28;20456;-54
2021/08/30 06:21:11;;;;;;;8.13;7.20;;;;;;;17.23;81.40;100124.66;10370446;28;20054;-55
2021/08/30 06:26:13;;;;;;;8.18;7.32;;;;;;;17.21;81.70;100115.13;10367920;28;20109;-55
2021/08/30 06:31:14;;;;;;;8.68;7.78;;;;;;;17.28;80.97;100119.63;10367645;28;20405;-54
2021/08/30 06:36:16;;;;;;;8.05;7.22;;;;;;;17.24;80.73;100125.53;10368053;28;20156;-56
2021/08/30 06:41:17;;;;;;;8.80;7.90;;;;;;;17.17;80.25;100130.72;10367950;28;20160;-55
2021/08/30 06:46:19;;;;;;;9.50;8.50;;;;;;;17.23;79.07;100130.06;10366893;28;20207;-55
2021/08/30 06:51:20;;;;;;;8.55;7.63;;;;;;;16.82;78.85;100067.41;10368829;28;20402;-54
2021/08/30 06:56:22;;;;;;;9.32;8.43;;;;;;;17.20;79.24;100130.38;10369332;28;20504;-56
2021/08/30 07:01:23;;;;;;;9.52;8.25;;;;;;;17.40;79.57;100132.72;10366946;28;20111;-54
2021/08/30 07:06:25;;;;;;;10.93;9.50;;;;;;;17.47;79.08;100128.34;10365898;28;20041;-55
2021/08/30 07:11:27;;;;;;;8.48;7.65;;;;;;;17.47;79.48;100148.03;10365540;28;20198;-54
2021/08/30 07:16:28;;;;;;;8.27;7.40;;;;;;;17.51;78.85;100145.81;10366024;28;20130;-54
2021/08/30 07:21:30;;;;;;;8.52;7.75;;;;;;;17.48;78.56;100135.41;10367274;28;20056;-54
2021/08/30 07:26:32;;;;;;;8.25;7.45;;;;;;;17.49;78.47;100139.78;10366525;28;20573;-56
2021/08/30 07:31:33;;;;;;;8.07;7.28;;;;;;;17.69;77.86;100142.09;10358276;28;20057;-54
2021/08/30 07:36:35;;;;;;;9.75;8.82;;;;;;;17.61;77.92;100149.19;10346878;28;20546;-54
2021/08/30 07:41:36;;;;;;;9.73;8.25;;;;;;;17.65;78.13;100147.81;10372889;28;20132;-56
2021/08/30 07:46:38;;;;;;;9.90;8.13;;;;;;;17.79;77.35;100151.66;10361458;28;20131;-55
2021/08/30 07:51:40;;;;;;;7.47;6.75;;;;;;;18.12;75.64;100151.56;10368807;28;20057;-56
2021/08/30 07:56:41;;;;;;;7.72;6.88;;;;;;;18.38;75.00;100164.72;10366981;28;20696;-56
2021/08/30 08:01:43;;;;;;;7.80;6.63;;;;;;;18.61;74.43;100172.00;10367630;28;20107;-55
2021/08/30 08:06:44;;;;;;;8.18;7.38;;;;;;;18.45;74.60;100161.31;10367124;28;20286;-55
2021/08/30 08:11:47;;;;;;;9.82;8.23;;;;;;;18.35;74.82;100167.75;10366064;28;20840;-56
2021/08/30 08:16:48;;;;;;;11.60;8.77;;;;;;;18.37;74.37;100176.53;10366462;28;20131;-54
2021/08/30 08:21:50;;;;;;;8.13;7.32;;;;;;;18.51;73.91;100179.47;10364849;28;20088;-56
2021/08/30 08:26:52;;;;;;;9.38;8.25;;;;;;;18.61;73.40;100182.78;10355037;28;20160;-56
2021/08/30 08:31:53;;;;;;;7.95;7.15;;;;;;;18.81;72.54;100183.16;10367420;28;20073;-57
2021/08/30 08:36:59;;;;;;;8.63;7.82;;;;;;;19.05;72.47;100179.47;10366506;28;20132;-58
2021/08/30 08:42:01;;;;;;;9.02;7.65;;;;;;;19.31;70.64;100189.03;10366631;28;20049;-55
2021/08/30 08:47:03;;;;;;;9.57;8.68;;;;;;;19.30;70.30;100195.44;10365641;28;20056;-55
2021/08/30 08:52:05;;;;;;;7.75;6.78;;;;;;;19.41;71.21;100188.78;10368062;28;20128;-54
2021/08/30 08:57:27;;;;;;;8.63;7.80;;;;;;;19.17;71.30;100187.13;10363160;28;20045;-55
2021/08/30 09:02:30;;;;;;;8.48;7.68;;;;;;;19.12;69.69;100194.94;10361589;28;20124;-57
2021/08/30 09:07:42;;;;;;;8.68;7.88;;;;;;;19.23;68.64;100194.50;10367425;28;20049;-57
2021/08/30 09:12:44;;;;;;;8.35;7.55;;;;;;;19.94;66.86;100200.44;10367384;28;20115;-53
2021/08/30 09:17:49;;;;;;;7.82;7.00;;;;;;;20.45;65.84;100205.03;10373317;28;20053;-55
2021/08/30 09:22:52;;;;;;;8.93;7.28;;;;;;;20.49;64.54;100203.63;10386612;28;20084;-55
2021/08/30 09:27:54;;;;;;;8.00;7.20;;;;;;;20.41;63.32;100194.78;10370830;28;20460;-55
2021/08/30 09:32:56;;;;;;;8.15;7.38;;;;;;;20.25;64.63;100204.81;10368192;28;20072;-55
2021/08/30 09:37:57;;;;;;;11.95;7.22;;;;;;;20.12;64.70;100183.84;10369306;28;20533;-55
2021/08/30 09:42:59;;;;;;;8.50;7.28;;;;;;;19.88;65.65;100200.34;10369916;28;20050;-54
2021/08/30 09:48:02;;;;;;;8.27;7.53;;;;;;;19.67;68.17;100201.88;10374759;28;20143;-54
2021/08/30 09:53:04;;;;;;;8.77;7.68;;;;;;;19.67;66.79;100203.75;10377850;28;20080;-55
2021/08/30 09:58:06;;;;;;;8.35;7.45;;;;;;;19.39;67.42;100196.22;10378101;28;20169;-57
2021/08/30 10:03:08;;;;;;;7.90;7.18;;;;;;;19.10;67.36;100200.53;10378441;28;20118;-55
2021/08/30 10:08:10;;;;;;;8.10;6.35;;;;;;;19.03;68.29;100205.78;10381023;28;20092;-55
2021/08/30 10:13:12;;;;;;;6.88;6.15;;;;;;;18.87;67.01;100195.09;10380055;28;20646;-63
2021/08/30 10:18:17;;;;;;;7.32;6.63;;;;;;;18.96;67.55;100199.44;10380600;28;20049;-56
2021/08/30 10:23:20;;;;;;;6.72;5.90;;;;;;;19.16;67.93;100199.78;10381483;28;20873;-56
2021/08/30 10:28:21;;;;;;;7.95;7.15;;;;;;;19.25;67.85;100211.38;10378653;28;20110;-55
2021/08/30 10:33:24;;;;;;;7.53;6.70;;;;;;;19.45;66.75;100210.84;10379765;28;20215;-61
2021/08/30 10:38:25;;;;;;;8.52;7.50;;;;;;;19.52;65.83;100206.41;10393423;28;20103;-56
2021/08/30 10:43:31;;;;;;;6.88;6.18;;;;;;;19.68;65.83;100216.19;10378450;28;20065;-55
2021/08/30 10:48:33;;;;;;;6.90;6.28;;;;;;;19.79;64.36;100215.78;10379553;28;20072;-60
2021/08/30 10:53:35;;;;;;;7.45;6.03;;;;;;;20.11;63.14;100221.84;10384342;28;20171;-55
2021/08/30 10:58:37;;;;;;;8.15;6.55;;;;;;;20.22;63.62;100220.53;10359785;28;20049;-56
2021/08/30 11:03:39;;;;;;;5.72;5.22;;;;;;;20.03;63.59;100211.97;10365126;28;20069;-55
2021/08/30 11:08:43;;;;;;;8.60;6.35;;;;;;;19.80;64.18;100222.03;10363863;28;20140;-56
2021/08/30 11:14:09;;;;;;;7.00;5.53;;;;;;;19.66;63.35;100221.78;10362921;28;20081;-56
2021/08/30 11:19:14;;;;;;;7.65;6.75;;;;;;;19.40;64.22;100225.72;10363082;28;20049;-55
2021/08/30 11:24:23;;;;;;;7.47;6.53;;;;;;;19.21;65.11;100220.84;10365383;28;20063;-56
2021/08/30 11:29:25;;;;;;;6.38;5.75;;;;;;;19.37;65.26;100230.66;10363237;28;20108;-56
2021/08/30 11:34:36;;;;;;;6.57;5.97;;;;;;;19.32;65.20;100230.34;10353741;28;20046;-56
2021/08/30 11:39:40;;;;;;;6.47;5.95;;;;;;;19.38;65.18;100230.47;10349741;28;20127;-56
2021/08/30 11:44:43;;;;;;;6.85;6.10;;;;;;;19.35;64.58;100241.66;10349412;28;20138;-55
2021/08/30 11:49:50;;;;;;;6.75;6.05;;;;;;;19.36;65.06;100229.81;10345361;28;20049;-55
2021/08/30 11:54:56;;;;;;;7.65;6.13;;;;;;;19.25;65.51;100238.34;10346481;28;20055;-55
2021/08/30 11:59:57;;;;;;;6.93;6.32;;;;;;;19.29;65.61;100250.47;10347062;28;20038;-55
2021/08/30 12:05:07;;;;;;;6.78;6.13;;;;;;;19.14;65.55;100265.72;10352450;28;20053;-54
2021/08/30 12:10:12;;;;;;;6.72;6.07;;;;;;;18.97;69.08;100284.72;10377447;28;20099;-55
2021/08/30 12:15:19;;;;;;;8.60;7.40;;;;;;;18.60;72.56;100299.72;10360500;28;20069;-55
2021/08/30 12:20:29;;;;;;;7.80;6.55;;;;;;;18.38;74.33;100288.66;10361794;28;20439;-55
2021/08/30 12:25:36;;;;;;;6.72;6.13;;;;;;;18.43;75.90;100293.53;10358708;28;20061;-55
2021/08/30 12:30:40;;;;;;;7.72;6.97;;;;;;;18.24;77.80;100273.25;10375091;28;20046;-54
2021/08/30 12:35:47;;;;;;;6.88;6.18;;;;;;;18.58;76.22;100279.34;10361719;28;20200;-56
2021/08/30 12:40:55;;;;;;;7.40;6.70;;;;;;;18.69;77.16;100274.41;10365414;28;20041;-55
2021/08/30 12:45:57;;;;;;;8.18;7.45;;;;;;;18.76;76.04;100254.81;10378257;28;20046;-54
2021/08/30 12:50:58;;;;;;;9.75;7.28;;;;;;;18.90;75.47;100265.72;10364817;28;20142;-55
2021/08/30 12:56:00;;;;;;;7.45;6.03;;;;;;;19.06;74.69;100272.84;10364277;28;20049;-55
2021/08/30 13:01:01;;;;;;;7.32;6.57;;;;;;;19.15;74.80;100280.91;10361694;28;20148;-55
2021/08/30 13:06:04;;;;;;;7.18;6.47;;;;;;;19.26;74.86;100275.13;10360989;28;20049;-56
2021/08/30 13:11:05;;;;;;;8.88;6.72;;;;;;;19.38;74.16;100280.91;10361539;28;20049;-57
2021/08/30 13:16:07;;;;;;;6.53;5.90;;;;;;;19.25;73.00;100276.13;10359313;28;20052;-56
2021/08/30 13:21:08;;;;;;;6.28;5.68;;;;;;;19.18;74.04;100281.38;10386480;23;20069;-64
2021/08/30 13:26:10;;;;;;;8.40;6.40;;;;;;;19.01;74.49;100263.66;10378174;28;20476;-64
2021/08/30 13:31:12;;;;;;;7.20;5.75;;;;;;;18.90;73.27;100281.91;10351885;28;20048;-63
2021/08/30 13:36:13;;;;;;;7.80;6.50;;;;;;;18.85;73.18;100286.13;10363966;28;20049;-64
2021/08/30 13:41:15;;;;;;;6.07;5.47;;;;;;;18.87;73.16;100284.97;10348477;28;20072;-63
2021/08/30 13:46:17;;;;;;;6.60;5.82;;;;;;;19.03;73.16;100275.91;10345759;28;20145;-64
2021/08/30 13:51:19;;;;;;;7.05;5.72;;;;;;;19.17;71.10;100276.16;10349318;28;20072;-64
2021/08/30 13:56:20;;;;;;;7.15;4.85;;;;;;;19.25;71.38;100292.31;10360959;28;20137;-63
2021/08/30 14:01:21;;;;;;;4.47;4.07;;;;;;;19.31;69.23;100291.59;10348074;28;20064;-64
2021/08/30 14:06:23;;;;;;;3.85;3.55;;;;;;;19.35;68.69;100287.53;10347355;28;20073;-64
2021/08/30 14:11:37;;;;;;;7.20;3.95;;;;;;;19.53;67.16;100273.72;10345267;28;20050;-62
2021/08/30 14:16:39;;;;;;;4.22;3.83;;;;;;;19.88;67.03;100281.38;10336508;28;20183;-65
2021/08/30 14:21:41;;;;;;;4.32;3.92;;;;;;;20.03;66.18;100273.28;10340248;28;20144;-63
2021/08/30 14:26:42;;;;;;;5.00;3.75;;;;;;;20.29;65.23;100283.63;10346905;28;20474;-61
2021/08/30 14:31:44;;;;;;;3.95;3.40;;;;;;;20.38;65.42;100292.50;10349894;28;20104;-61
2021/08/30 14:36:45;;;;;;;4.25;3.85;;;;;;;20.55;63.92;100287.72;10353762;28;20050;-63
2021/08/30 14:41:47;;;;;;;4.82;4.38;;;;;;;20.55;64.15;100282.31;10354266;28;20132;-64
2021/08/30 14:46:48;;;;;;;4.45;4.05;;;;;;;20.58;64.50;100293.59;10371188;28;20440;-64
2021/08/30 14:51:50;;;;;;;5.25;4.43;;;;;;;20.56;64.71;100298.34;10352885;28;20061;-64
2021/08/30 14:56:51;;;;;;;5.65;5.15;;;;;;;20.58;64.71;100288.19;10341249;28;20194;-63
2021/08/30 15:01:53;;;;;;;5.63;5.13;;;;;;;20.63;64.22;100284.91;10348531;28;20502;-63
2021/08/30 15:06:56;;;;;;;6.10;4.90;;;;;;;20.44;63.98;100292.56;10354091;28;20101;-63
2021/08/30 15:11:57;;;;;;;5.88;4.65;;;;;;;20.33;64.78;100282.25;10353474;28;20112;-63
2021/08/30 15:16:59;;;;;;;5.47;4.97;;;;;;;20.40;64.76;100285.03;10346959;28;20052;-64
2021/08/30 15:22:00;;;;;;;6.30;5.68;;;;;;;20.44;64.45;100281.75;10350749;28;20054;-63
2021/08/30 15:27:03;;;;;;;6.38;5.30;;;;;;;20.47;63.96;100286.78;10368416;28;20523;-63
2021/08/30 15:32:06;;;;;;;5.90;5.40;;;;;;;20.63;64.55;100290.34;10376362;28;20123;-62
2021/08/30 15:37:08;;;;;;;;;;;;;;;20.43;63.99;100292.75;10357849;28;20078;-62
2021/08/30 15:42:09;;;;;;;6.53;5.93;;;;;;;20.36;64.72;100289.16;10359650;28;20047;-64
2021/08/30 15:47:11;;;;;;;6.28;5.63;;;;;;;20.25;65.39;100293.13;10352382;28;20573;-63
2021/08/30 15:52:13;;;;;;;5.60;5.10;;;;;;;20.19;66.08;100288.47;10363281;28;20077;-67
2021/08/30 15:57:15;;;;;;;7.00;5.88;;;;;;;20.26;65.58;100286.72;10350351;28;20053;-63
2021/08/30 16:02:16;;;;;;;6.60;5.15;;;;;;;20.27;64.96;100291.94;10344183;28;20184;-63
2021/08/30 16:07:20;;;;;;;6.00;5.43;;;;;;;20.13;65.54;100290.91;10344422;28;20738;-63
2021/08/30 16:12:21;;;;;;;;;;;;;;;19.96;65.77;100298.31;10373761;28;20077;-63
2021/08/30 16:17:23;;;;;;;7.82;6.20;;;;;;;19.92;65.95;100288.06;10354822;28;19921;-63
2021/08/30 16:22:24;;;;;;;6.50;5.90;;;;;;;19.91;66.67;100297.22;10355130;28;20139;-65
2021/08/30 16:27:25;;;;;;;5.90;5.43;;;;;;;19.86;66.75;100302.31;10350167;28;20120;-63
2021/08/30 16:32:27;;;;;;;7.10;5.63;;;;;;;19.78;67.02;100304.06;10356131;28;20073;-62
2021/08/30 16:37:31;;;;;;;6.68;5.97;;;;;;;19.78;66.86;100312.16;10348741;28;20097;-62
2021/08/30 16:42:34;;;;;;;6.72;6.00;;;;;;;19.65;67.43;100302.97;10365800;28;20295;-62
2021/08/30 16:47:35;;;;;;;7.20;5.90;;;;;;;19.68;68.32;100303.47;10350129;28;20129;-62
2021/08/30 16:52:37;;;;;;;7.13;6.43;;;;;;;19.62;67.60;100314.97;10357896;28;20077;-63
2021/08/30 16:57:39;;;;;;;6.90;6.30;;;;;;;19.60;68.17;100304.34;10354395;28;20069;-63
2021/08/30 17:02:41;;;;;;;7.22;6.10;;;;;;;19.61;67.96;100306.03;10350101;28;20138;-62
2021/08/30 17:07:42;;;;;;;6.60;5.90;;;;;;;19.59;68.16;100299.13;10346390;28;20054;-63
2021/08/30 17:12:45;;;;;;;6.88;6.18;;;;;;;19.57;68.38;100311.97;10345522;28;20133;-65
2021/08/30 17:17:47;;;;;;;6.60;6.00;;;;;;;19.55;68.64;100319.44;10351160;28;20570;-63
2021/08/30 17:22:48;;;;;;;6.85;6.15;;;;;;;19.39;68.88;100315.81;10363534;28;20479;-64
2021/08/30 17:27:52;;;;;;;7.38;6.68;;;;;;;19.41;68.80;100321.88;10353230;28;20157;-63
2021/08/30 17:32:53;;;;;;;6.80;6.10;;;;;;;19.36;68.83;100316.16;10350391;28;20846;-64
2021/08/30 17:37:56;;;;;;;7.30;6.22;;;;;;;19.37;68.82;100328.66;10345766;28;20160;-62
2021/08/30 17:42:58;;;;;;;7.03;6.32;;;;;;;19.33;69.01;100321.94;10349761;28;20061;-61
2021/08/30 17:48:00;;;;;;;8.27;6.38;;;;;;;19.28;69.61;100323.50;10346115;28;20058;-62
2021/08/30 17:53:01;;;;;;;9.27;7.03;;;;;;;19.23;69.88;100321.31;10367118;28;20161;-63
2021/08/30 17:58:02;;;;;;;9.60;6.95;;;;;;;19.23;69.89;100335.66;10344867;28;20142;-63
2021/08/30 18:03:04;;;;;;;9.30;6.68;;;;;;;19.20;69.87;100351.34;10355815;28;20045;-61
2021/08/30 18:08:06;;;;;;;9.02;7.53;;;;;;;19.17;70.22;100344.47;10351365;28;20072;-65
2021/08/30 18:13:07;;;;;;;6.85;6.18;;;;;;;19.14;70.74;100343.97;10354800;28;20072;-61
2021/08/30 18:18:09;;;;;;;7.60;6.88;;;;;;;19.13;70.52;100353.09;10356090;28;20100;-63
2021/08/30 18:23:11;;;;;;;6.72;6.03;;;;;;;19.07;70.94;100344.69;10357217;28;20073;-61
2021/08/30 18:28:13;;;;;;;7.07;6.38;;;;;;;19.04;70.61;100357.69;10356080;28;20620;-62
2021/08/30 18:33:14;;;;;;;6.85;6.03;;;;;;;19.05;70.69;100367.44;10359424;28;20045;-63
2021/08/30 18:38:16;;;;;;;7.53;6.05;;;;;;;19.03;70.42;100373.03;10358173;28;20528;-62
2021/08/30 18:43:17;;;;;;;7.30;5.43;;;;;;;19.01;70.71;100380.47;10355664;28;20586;-63
2021/08/30 18:48:19;;;;;;;8.18;6.88;;;;;;;18.97;70.56;100387.22;10356119;28;20692;-62
2021/08/30 18:53:20;;;;;;;7.50;6.57;;;;;;;18.95;70.65;100383.88;10356986;28;20161;-61
2021/08/30 18:58:21;;;;;;;6.70;6.03;;;;;;;18.95;69.96;100391.97;10363055;28;20053;-61
2021/08/30 19:03:23;;;;;;;5.60;5.00;;;;;;;18.92;70.14;100392.31;10350053;28;20054;-61
2021/08/30 19:08:34;;;;;;;6.95;6.35;;;;;;;18.81;69.92;100389.94;10348891;28;20391;-64
2021/08/30 19:13:35;;;;;;;6.70;6.03;;;;;;;18.85;69.67;100392.16;10353644;28;20120;-62
2021/08/30 19:18:38;;;;;;;6.30;5.70;;;;;;;18.80;69.69;100407.16;10356393;28;20056;-61
2021/08/30 19:23:40;;;;;;;7.53;6.70;;;;;;;18.79;69.89;100400.06;10392889;28;20489;-61
2021/08/30 19:28:41;;;;;;;7.13;6.50;;;;;;;18.79;69.95;100400.06;10381887;28;20045;-63
2021/08/30 19:33:44;;;;;;;7.13;5.30;;;;;;;18.83;69.45;100414.91;10387449;28;20136;-63
2021/08/30 19:38:46;;;;;;;7.60;5.75;;;;;;;18.80;69.55;100420.66;10371145;28;20137;-65
2021/08/30 19:43:47;;;;;;;6.25;5.40;;;;;;;18.77;69.91;100415.59;10391798;28;20084;-65
2021/08/30 19:48:49;;;;;;;6.22;5.65;;;;;;;18.72;70.00;100411.56;10367734;28;20053;-64
2021/08/30 19:53:51;;;;;;;6.30;5.70;;;;;;;18.70;70.27;100418.97;10363552;28;20053;-64
2021/08/30 19:58:52;;;;;;;5.82;5.32;;;;;;;18.66;69.63;100424.88;10365633;28;20233;-64
2021/08/30 20:03:53;;;;;;;7.47;5.80;;;;;;;18.63;69.79;100423.38;10369572;28;20406;-63
2021/08/30 20:08:57;;;;;;;7.00;5.45;;;;;;;18.57;69.81;100416.00;10376980;28;20053;-64
2021/08/30 20:13:58;;;;;;;6.23;5.63;;;;;;;18.58;70.24;100436.53;10371608;28;20654;-64
2021/08/30 20:19:00;;;;;;;6.95;6.10;;;;;;;18.54;70.18;100443.28;10367604;28;20465;-63
2021/08/30 20:24:01;;;;;;;6.13;5.53;;;;;;;18.43;69.88;100435.53;10362344;28;20140;-63
2021/08/30 20:29:03;;;;;;;6.32;5.72;;;;;;;18.37;70.53;100439.75;10368564;28;20112;-63
2021/08/30 20:34:04;;;;;;;5.75;5.25;;;;;;;18.31;69.99;100435.03;10373196;28;20290;-64
2021/08/30 20:39:06;;;;;;;6.18;4.80;;;;;;;18.25;70.65;100446.50;10378759;28;20064;-61
2021/08/30 20:44:07;;;;;;;6.57;5.47;;;;;;;18.26;70.63;100435.56;10362556;28;20133;-63
2021/08/30 20:49:09;;;;;;;5.60;5.07;;;;;;;18.20;71.40;100438.94;10363977;28;20143;-61
2021/08/30 20:54:10;;;;;;;6.00;4.90;;;;;;;18.20;71.05;100444.31;10361976;28;20139;-62
2021/08/30 20:59:12;;;;;;;7.57;5.88;;;;;;;18.20;71.52;100450.53;10368279;28;20264;-62
2021/08/30 21:04:13;;;;;;;6.32;4.85;;;;;;;18.18;71.78;100443.66;10376492;28;20152;-63
2021/08/30 21:09:15;;;;;;;5.90;5.40;;;;;;;18.17;71.13;100453.56;10368596;28;20053;-64
2021/08/30 21:14:16;;;;;;;5.80;4.97;;;;;;;18.10;71.93;100449.03;10363717;28;20342;-62
2021/08/30 21:19:18;;;;;;;7.05;5.57;;;;;;;18.08;72.86;100448.38;10364059;28;20068;-62
2021/08/30 21:24:19;;;;;;;6.78;5.47;;;;;;;18.09;72.06;100448.19;10362559;28;20049;-62
2021/08/30 21:29:21;;;;;;;6.10;5.47;;;;;;;18.08;72.39;100448.38;10363168;28;20136;-61
2021/08/30 21:34:23;;;;;;;7.03;6.32;;;;;;;17.90;72.68;100446.66;10356991;28;20499;-62
2021/08/30 21:39:28;;;;;;;7.30;5.45;;;;;;;17.84;72.47;100460.75;10396135;22;20243;-56
2021/08/30 21:44:29;;;;;;;5.10;4.65;;;;;;;17.76;72.88;100471.50;10386651;28;20079;-55
2021/08/30 21:49:31;;;;;;;5.57;5.07;;;;;;;17.73;72.75;100469.13;10394657;28;20069;-58
2021/08/30 21:54:32;;;;;;;5.43;4.90;;;;;;;17.60;73.70;100470.47;10392918;28;20061;-56
2021/08/30 21:59:34;;;;;;;6.80;5.00;;;;;;;17.52;72.79;100477.66;10393498;28;20145;-57
2021/08/30 22:04:35;;;;;;;5.07;4.18;;;;;;;17.45;72.71;100482.88;10392362;28;20057;-56
2021/08/30 22:09:37;;;;;;;5.80;4.82;;;;;;;17.34;73.40;100480.44;10396251;28;20819;-57
2021/08/30 22:14:38;;;;;;;5.05;4.50;;;;;;;17.40;73.09;100490.56;10395963;28;20053;-57
2021/08/30 22:19:39;;;;;;;7.18;5.07;;;;;;;17.28;74.31;100476.59;10398025;28;20870;-56
2021/08/30 22:24:41;;;;;;;4.78;4.38;;;;;;;17.20;73.81;100495.38;10400308;28;20776;-56
2021/08/30 22:29:43;;;;;;;5.75;5.25;;;;;;;17.10;74.81;100476.69;10396070;28;20102;-58
2021/08/30 22:34:45;;;;;;;5.32;4.82;;;;;;;17.10;75.01;100490.13;10393052;28;20241;-57
2021/08/30 22:39:46;;;;;;;5.03;4.53;;;;;;;17.09;74.70;100474.97;10394381;28;20073;-56
2021/08/30 22:44:48;;;;;;;5.07;4.68;;;;;;;17.19;75.36;100483.78;10399220;28;20524;-60
2021/08/30 22:49:49;;;;;;;5.13;4.40;;;;;;;17.15;74.53;100482.41;10393506;28;20045;-56
2021/08/30 22:54:51;;;;;;;4.63;4.22;;;;;;;17.02;74.11;100466.69;10389691;28;20099;-54
2021/08/30 22:59:52;;;;;;;5.00;4.50;;;;;;;16.83;74.53;100483.03;10402394;28;20140;-55
2021/08/30 23:04:53;;;;;;;4.78;4.32;;;;;;;16.75;76.18;100475.75;10383336;28;20057;-56
2021/08/30 23:09:55;;;;;;;4.85;4.43;;;;;;;16.69;75.59;100485.28;10384622;28;20076;-57
2021/08/30 23:14:56;;;;;;;5.57;5.07;;;;;;;16.69;75.47;100479.91;10386272;28;20053;-57